Anglesea, New Jersey
Current Conditions -  °F | °C
As of 2:35 AM on Wednesday 22 Oct 2014 (Local Time) from KWWD Reporting Station
Overcast Overcast  
Wind Chill: 55°   Ceiling: 8500
Heat Index: 55°   Visibility: 5mi
Dew Point: 52°   Wind: 6mph
Humidity: 88%   Direction: 40°NE
Pressure: 29.82"   Gusts: NA
Location:  38.9808°N, 74.8281°W
Report Text: KWWD 220635Z AUTO 04005KT 5SM SCT060 OVC085 13/11 A2982 RMK AO1 LTG DSNT NE P0002
Loading
Personal Weather Stations






























Interactive Weather Map New forecast layout! Learn more

10-Day Weather Forecast

Advertisements
Track Severe Weather on mobile